Página principal
METAR-TAF:

METAR-TAF

Aeroportos :

Sandane, Noruega

latitude: 61-50N, longitude: 006-07E, altura: 6 m

Observação actual do tempo

O boletim foi feito há 18 minutos, às 14:50 UTC
Vento calmo
Temperatura 4°C
Humidade 75%
Pressão 1014 hPa
Visibilidade 10 km ou mais
Poucas nuvensa uma altura de 2200 ft
Nuvens fragmentadasa uma altura de 3800 ft

METAR: ENSD 261450Z 00000KT 9999 FEW022 BKN038 04/M00 Q1014 RMK WIND RWY26 00000KT WIND 1140FT VRB02KT

Hora: 16:08 (15:08 UTC)

Previsão

O boletim foi feito há 1 hora e 8 minutos, às 14:00 UTC
Previsão válida de 26 às 15 UTC a 26 às 22 UTC
Vento 3 kt com direcção variável
Visibilidade 10 km ou mais
Nuvens dispersasa uma altura de 3000 ft
Nuvens fragmentadasa uma altura de 4000 ft

TAF: ENSD 261400Z 2615/2622 VRB03KT 9999 SCT030 BKN040

Observações e previsões do tempo de mais de 4000 aeroportos (mensagens METAR e TAF).

As estações disponíveis são os pontos amarelos e vermelhos sobre o mapa.

Mova o rato sobre o mapa para ver o nome da estação.

Depois clique no ponto para visualizar as observações e previsões meteorológicas.

Para alterar o mapa : clique nos botões verdes com uma cruz preta para aumentar o zoom; no botão verde com uma pitada de zoom; ou nas setas verdes para mapas adjacentes.


METAR-TAF: